Time;durP1;ratioP1;P1;durP2;ratioP2;P2;SDS_P1;SDS_P2;PMS_P1;PMS_P2;Temp;Humidity;BMP_temperature;BMP_pressure;BME280_temperature;BME280_humidity;BME280_pressure;Samples;Min_cycle;Max_cycle;Signal;HPM_P1;HPM_P2
2022/11/28 00:00:28;;;;;;;24.77;13.45;;;;;;;2.65;80.67;95686.06;5049456;28;20044;-75
2022/11/28 00:02:55;;;;;;;23.63;13.02;;;;;;;2.92;80.91;95733.84;5031628;28;20033;-75
2022/11/28 00:05:21;;;;;;;20.58;11.98;;;;;;;2.81;80.83;95718.81;5049771;28;20527;-75
2022/11/28 00:07:46;;;;;;;22.20;12.57;;;;;;;3.64;80.68;95826.88;5031740;28;20041;-75
2022/11/28 00:10:12;;;;;;;24.63;11.90;;;;;;;3.49;80.15;95802.78;5030623;28;20060;-75
2022/11/28 00:12:37;;;;;;;20.33;10.25;;;;;;;3.64;80.62;95824.25;5049237;28;20125;-75
2022/11/28 00:15:04;;;;;;;22.38;12.15;;;;;;;3.66;80.74;95830.06;5031387;28;20037;-75
2022/11/28 00:17:30;;;;;;;21.30;11.52;;;;;;;3.49;80.81;95827.19;5049091;28;20040;-75
2022/11/28 00:19:55;;;;;;;19.70;10.95;;;;;;;3.16;81.15;95762.91;5031042;28;20029;-76
2022/11/28 00:22:21;;;;;;;17.67;10.93;;;;;;;2.93;81.06;95782.59;5049299;28;20056;-75
2022/11/28 00:24:46;;;;;;;19.30;10.63;;;;;;;3.43;81.58;95825.41;5049375;28;20087;-75
2022/11/28 00:27:12;;;;;;;19.95;10.27;;;;;;;2.64;81.21;95736.03;5049184;28;20040;-75
2022/11/28 00:29:38;;;;;;;17.63;10.45;;;;;;;3.23;81.85;95827.38;5049380;28;20044;-75
2022/11/28 00:32:04;;;;;;;14.45;9.23;;;;;;;2.71;81.77;95739.41;5048533;28;20053;-75
2022/11/28 00:34:29;;;;;;;18.85;10.18;;;;;;;2.91;81.58;95768.91;5031418;28;20053;-75
2022/11/28 00:36:55;;;;;;;17.70;9.15;;;;;;;3.36;81.31;95832.53;5049593;28;20041;-75
2022/11/28 00:39:20;;;;;;;14.80;9.00;;;;;;;3.36;81.10;95829.09;5031421;28;20045;-75
2022/11/28 00:41:46;;;;;;;16.75;8.60;;;;;;;3.00;80.58;95772.09;5030729;28;20056;-75
2022/11/28 00:44:12;;;;;;;18.38;10.15;;;;;;;3.32;80.41;95804.31;5049105;28;20262;-75
2022/11/28 00:46:37;;;;;;;14.70;8.68;;;;;;;3.31;80.63;95803.53;5014812;28;20075;-76
2022/11/28 00:49:03;;;;;;;17.73;9.82;;;;;;;3.02;80.59;95751.72;5049336;28;20049;-75
2022/11/28 00:51:30;;;;;;;17.38;9.50;;;;;;;3.00;80.40;95761.59;5048539;28;20044;-75
2022/11/28 00:53:58;;;;;;;14.63;9.15;;;;;;;3.39;80.48;95826.88;5031197;28;20499;-75
2022/11/28 00:56:28;;;;;;;17.13;9.23;;;;;;;3.00;80.16;95770.25;5031315;28;20041;-75
2022/11/28 00:58:55;;;;;;;18.95;9.68;;;;;;;3.40;80.24;95823.22;5049249;28;20494;-75
2022/11/28 01:01:25;;;;;;;14.88;8.85;;;;;;;3.38;80.39;95829.69;5048881;28;20045;-75
2022/11/28 01:03:52;;;;;;;13.25;8.52;;;;;;;2.96;79.93;95760.44;5032638;28;20312;-75
2022/11/28 01:06:25;;;;;;;16.00;8.35;;;;;;;3.40;80.00;95827.66;5052247;28;20044;-75
2022/11/28 01:08:51;;;;;;;15.90;8.68;;;;;;;3.03;79.79;95767.25;5052474;28;20526;-75
2022/11/28 01:11:18;;;;;;;14.32;8.18;;;;;;;3.37;79.78;95817.59;5052785;28;20077;-75
2022/11/28 01:13:43;;;;;;;16.10;8.63;;;;;;;3.04;79.41;95779.31;5052437;28;20123;-75
2022/11/28 01:16:09;;;;;;;16.50;9.57;;;;;;;3.30;79.82;95817.66;5052657;28;20071;-75
2022/11/28 01:18:36;;;;;;;18.83;9.90;;;;;;;3.32;79.55;95810.38;5052102;28;20041;-76
2022/11/28 01:21:02;;;;;;;17.50;9.52;;;;;;;2.90;79.53;95753.44;5052675;28;20112;-75
2022/11/28 01:23:27;;;;;;;16.02;8.90;;;;;;;2.79;79.80;95739.16;5052217;28;20033;-75
2022/11/28 01:25:53;;;;;;;17.15;9.65;;;;;;;3.23;79.87;95805.59;5052013;28;20047;-76
2022/11/28 01:28:18;;;;;;;16.17;9.07;;;;;;;3.18;80.04;95811.50;5034162;28;20514;-76
2022/11/28 01:30:44;;;;;;;16.00;8.60;;;;;;;3.19;80.07;95812.28;5060190;28;20041;-76
2022/11/28 01:33:09;;;;;;;17.17;9.15;;;;;;;2.96;79.90;95776.97;5052070;28;20090;-76
2022/11/28 01:35:35;;;;;;;17.33;8.25;;;;;;;2.68;80.11;95751.09;5034592;28;20041;-75
2022/11/28 01:38:00;;;;;;;13.73;8.13;;;;;;;2.68;80.05;95734.59;5052314;28;20044;-75
2022/11/28 01:40:26;;;;;;;13.98;8.73;;;;;;;2.43;80.06;95687.44;5052119;28;20338;-76
2022/11/28 01:42:51;;;;;;;14.52;7.95;;;;;;;2.78;79.88;95748.03;5051728;28;20041;-76
2022/11/28 01:45:27;;;;;;;11.80;7.38;;;;;;;3.13;80.09;95787.72;5033667;28;20053;-76
2022/11/28 01:47:58;;;;;;;15.32;8.77;;;;;;;2.87;80.45;95765.13;5051737;28;20427;-76
2022/11/28 01:50:26;;;;;;;14.82;8.00;;;;;;;2.93;80.02;95774.75;5048124;28;20049;-76
2022/11/28 01:52:56;;;;;;;13.88;8.60;;;;;;;2.78;79.93;95755.91;5033500;28;20032;-75
2022/11/28 01:55:25;;;;;;;12.75;8.20;;;;;;;2.88;80.03;95761.50;5051872;28;20039;-75
2022/11/28 01:57:54;;;;;;;13.60;8.45;;;;;;;3.05;80.11;95788.78;5052074;28;20076;-75
2022/11/28 02:00:21;;;;;;;14.10;9.65;;;;;;;3.05;80.13;95790.63;5051274;28;20060;-75
2022/11/28 02:02:51;;;;;;;16.27;8.90;;;;;;;3.03;80.48;95793.44;5051748;28;20033;-76
2022/11/28 02:05:18;;;;;;;13.23;8.57;;;;;;;2.86;80.95;95763.50;5033229;28;20500;-76
2022/11/28 02:07:44;;;;;;;14.75;8.60;;;;;;;2.48;80.03;95699.88;5051977;28;20496;-76
2022/11/28 02:10:13;;;;;;;15.48;9.35;;;;;;;2.44;80.03;95685.63;5051889;28;20033;-76
2022/11/28 02:12:58;;;;;;;16.25;9.43;;;;;;;2.79;80.25;95741.78;5033250;28;20033;-77
2022/11/28 02:15:44;;;;;;;14.80;9.20;;;;;;;3.07;79.84;95784.13;5035069;28;20071;-77
2022/11/28 02:18:48;;;;;;;14.43;9.43;;;;;;;3.08;79.89;95783.13;5050749;28;20045;-77
2022/11/28 02:21:27;;;;;;;16.35;9.60;;;;;;;2.85;80.02;95748.81;5051023;28;20045;-77
2022/11/28 02:24:04;;;;;;;14.88;9.40;;;;;;;3.07;80.09;95781.50;5050631;28;20526;-77
2022/11/28 02:26:32;;;;;;;18.50;10.52;;;;;;;3.07;80.02;95783.31;5050894;28;20472;-77
2022/11/28 02:29:25;;;;;;;19.25;10.60;;;;;;;3.09;80.18;95783.91;5050796;28;20124;-77
2022/11/28 02:32:08;;;;;;;16.58;9.77;;;;;;;3.08;79.96;95775.25;5050372;28;20037;-77
2022/11/28 02:34:33;;;;;;;20.23;10.07;;;;;;;3.05;80.09;95774.91;5039575;28;20045;-77
2022/11/28 02:37:08;;;;;;;15.20;9.73;;;;;;;2.12;80.21;95627.19;5032768;28;20466;-77
2022/11/28 02:39:52;;;;;;;15.13;9.57;;;;;;;3.06;80.16;95769.41;5050858;28;20072;-77
2022/11/28 02:42:26;;;;;;;17.23;9.88;;;;;;;2.58;80.33;95703.66;5050926;28;20032;-77
2022/11/28 02:44:59;;;;;;;15.35;9.77;;;;;;;3.05;80.22;95778.28;5032345;28;20056;-77
2022/11/28 02:47:37;;;;;;;15.07;9.68;;;;;;;3.06;80.35;95779.09;5050667;28;20041;-77
2022/11/28 02:50:31;;;;;;;14.77;8.63;;;;;;;2.86;80.10;95746.97;5033029;28;20069;-77
2022/11/28 02:53:07;;;;;;;16.02;9.15;;;;;;;2.81;79.88;95728.50;5032117;28;20041;-77
2022/11/28 02:55:38;;;;;;;16.13;9.32;;;;;;;2.87;80.47;95757.25;5050007;28;20036;-77
2022/11/28 02:58:05;;;;;;;13.68;8.15;;;;;;;3.04;80.15;95765.41;5051083;28;20048;-77
2022/11/28 03:00:35;;;;;;;12.25;7.45;;;;;;;3.10;80.27;95782.91;5050729;28;20511;-77
2022/11/28 03:03:06;;;;;;;12.88;7.45;;;;;;;3.09;80.06;95786.53;5050948;28;20672;-77
2022/11/28 03:05:43;;;;;;;16.75;8.63;;;;;;;3.08;80.55;95777.06;5031776;28;20128;-77
2022/11/28 03:08:22;;;;;;;16.27;9.05;;;;;;;3.09;80.41;95786.53;5043324;28;20434;-77
2022/11/28 03:11:02;;;;;;;15.50;7.80;;;;;;;3.11;80.09;95784.53;5049996;28;20041;-77
2022/11/28 03:13:39;;;;;;;18.00;9.25;;;;;;;3.12;80.38;95777.47;5059701;28;20171;-77
2022/11/28 03:16:12;;;;;;;11.77;7.82;;;;;;;3.09;79.93;95781.31;5050038;28;20519;-77
2022/11/28 03:18:44;;;;;;;14.70;8.63;;;;;;;2.78;80.41;95734.94;5050221;28;20051;-77
2022/11/28 03:21:22;;;;;;;10.48;6.93;;;;;;;2.97;80.18;95764.66;5050056;28;20052;-77
2022/11/28 03:23:56;;;;;;;15.45;8.35;;;;;;;2.16;80.00;95649.31;5046700;28;20134;-77
2022/11/28 03:26:54;;;;;;;13.85;8.15;;;;;;;3.00;80.32;95780.75;5030055;28;20091;-77
2022/11/28 03:29:28;;;;;;;18.75;8.73;;;;;;;3.00;80.38;95782.56;5031947;28;20045;-77
2022/11/28 03:31:59;;;;;;;13.10;8.00;;;;;;;2.98;80.25;95780.16;5050442;28;20048;-77
2022/11/28 03:34:31;;;;;;;13.85;8.20;;;;;;;2.35;80.17;95684.25;5049978;28;20121;-77
2022/11/28 03:37:01;;;;;;;11.70;7.43;;;;;;;2.22;80.01;95670.19;5049650;28;20211;-77
2022/11/28 03:39:34;;;;;;;11.70;7.28;;;;;;;2.95;80.08;95787.66;5032166;28;20045;-77
2022/11/28 03:42:13;;;;;;;12.82;7.40;;;;;;;2.67;80.22;95739.03;5050202;28;20412;-77
2022/11/28 03:44:46;;;;;;;13.63;7.53;;;;;;;2.04;80.50;95643.13;5049639;28;20052;-77
2022/11/28 03:47:12;;;;;;;12.70;8.35;;;;;;;2.43;80.57;95703.13;5031832;28;20549;-77
2022/11/28 03:49:51;;;;;;;9.80;6.50;;;;;;;2.95;80.44;95770.09;5049958;28;20037;-77
2022/11/28 03:52:28;;;;;;;9.48;6.35;;;;;;;2.94;80.87;95778.97;5049450;28;20040;-77
2022/11/28 03:55:42;;;;;;;9.93;6.25;;;;;;;2.95;80.58;95782.41;5049650;28;20047;-77
2022/11/28 03:58:30;;;;;;;12.05;6.28;;;;;;;2.98;80.96;95781.97;5034869;28;20103;-77
2022/11/28 04:01:13;;;;;;;9.90;6.32;;;;;;;2.97;80.97;95781.19;5049708;28;20415;-77
2022/11/28 04:04:10;;;;;;;9.40;6.03;;;;;;;2.99;80.99;95783.56;5049829;28;20106;-77
2022/11/28 04:06:50;;;;;;;9.02;6.05;;;;;;;2.97;81.16;95775.94;5031379;28;20499;-77
2022/11/28 04:09:21;;;;;;;6.97;5.10;;;;;;;2.71;81.78;95750.69;5031299;28;20098;-77
2022/11/28 04:11:53;;;;;;;7.47;4.40;;;;;;;3.00;81.54;95774.69;5049854;28;20045;-77
2022/11/28 04:14:42;;;;;;;7.95;4.55;;;;;;;2.70;81.61;95724.72;5032921;28;20048;-77
2022/11/28 04:17:16;;;;;;;6.03;4.18;;;;;;;2.32;81.80;95667.94;5049801;28;20114;-77
2022/11/28 04:19:49;;;;;;;6.45;4.00;;;;;;;2.89;81.94;95772.78;5031582;28;20045;-77
2022/11/28 04:22:14;;;;;;;8.63;4.55;;;;;;;2.89;82.26;95770.16;5031625;28;20053;-77
2022/11/28 04:24:53;;;;;;;7.43;4.38;;;;;;;2.90;82.20;95769.91;5049474;28;20059;-76
2022/11/28 04:27:25;;;;;;;5.35;3.53;;;;;;;2.94;82.22;95786.03;5049589;28;20052;-75
2022/11/28 04:29:56;;;;;;;7.78;4.13;;;;;;;2.50;81.91;95706.50;5031285;28;20542;-77
2022/11/28 04:32:23;;;;;;;7.35;3.78;;;;;;;2.82;82.26;95764.16;5031239;28;20102;-77
2022/11/28 04:35:00;;;;;;;4.40;3.25;;;;;;;2.61;82.45;95747.72;5031833;28;20045;-77
2022/11/28 04:37:28;;;;;;;4.47;3.47;;;;;;;2.81;82.99;95793.97;5049320;28;20063;-77
2022/11/28 04:39:55;;;;;;;4.88;3.47;;;;;;;2.33;82.80;95692.31;5034130;28;20052;-77
2022/11/28 04:42:25;;;;;;;6.30;4.18;;;;;;;2.75;82.62;95760.78;5034984;28;20445;-77
2022/11/28 04:44:50;;;;;;;5.75;3.97;;;;;;;3.00;82.54;95790.41;5034835;28;20085;-77
2022/11/28 04:47:16;;;;;;;6.25;4.20;;;;;;;3.01;82.00;95787.59;5053116;28;20084;-77
2022/11/28 04:49:42;;;;;;;6.05;3.40;;;;;;;2.95;82.45;95787.66;5034441;28;20415;-77
2022/11/28 04:52:19;;;;;;;4.35;3.13;;;;;;;2.91;83.11;95787.25;5035011;28;20036;-76
2022/11/28 04:54:58;;;;;;;5.07;3.47;;;;;;;2.41;82.02;95709.56;5034367;28;20072;-76
2022/11/28 04:57:37;;;;;;;4.47;3.25;;;;;;;3.01;82.25;95794.66;5053066;28;20056;-76
2022/11/28 05:00:09;;;;;;;3.63;2.75;;;;;;;2.87;82.27;95767.75;5060577;28;20053;-76
2022/11/28 05:02:36;;;;;;;4.30;3.25;;;;;;;2.87;82.08;95772.97;5033834;28;20040;-76
2022/11/28 05:05:09;;;;;;;4.57;2.85;;;;;;;2.63;82.37;95726.56;5034487;28;20091;-76
2022/11/28 05:07:34;;;;;;;4.07;2.75;;;;;;;2.79;82.23;95754.09;5051928;28;20124;-76
2022/11/28 05:09:59;;;;;;;4.15;2.88;;;;;;;3.01;82.60;95792.84;5050658;28;20116;-77
2022/11/28 05:12:25;;;;;;;4.68;3.03;;;;;;;2.70;82.55;95729.94;5049337;28;20128;-76
2022/11/28 05:14:50;;;;;;;4.35;2.97;;;;;;;2.64;82.70;95725.56;5031188;28;20045;-76
2022/11/28 05:17:16;;;;;;;4.47;3.20;;;;;;;2.27;82.67;95659.94;5031720;28;20494;-77
2022/11/28 05:19:41;;;;;;;4.85;3.47;;;;;;;2.95;82.07;95754.38;5037044;28;20045;-76
2022/11/28 05:22:06;;;;;;;5.03;3.20;;;;;;;2.91;82.33;95747.94;5049514;28;20434;-76
2022/11/28 05:24:32;;;;;;;4.55;3.15;;;;;;;2.69;82.06;95697.72;5065182;28;20040;-76
2022/11/28 05:26:58;;;;;;;7.18;3.67;;;;;;;3.30;82.36;95783.56;5041849;28;20044;-77
2022/11/28 05:29:24;;;;;;;6.57;4.40;;;;;;;3.17;82.15;95759.28;5023728;28;20676;-76
2022/11/28 05:31:49;;;;;;;8.77;5.68;;;;;;;2.68;81.84;95682.22;5020208;28;20499;-77
2022/11/28 05:34:15;;;;;;;7.90;4.97;;;;;;;2.81;82.01;95697.84;5035831;28;20045;-78
2022/11/28 05:36:40;;;;;;;6.63;4.78;;;;;;;2.95;81.90;95720.31;5021565;28;20075;-77
2022/11/28 05:39:07;;;;;;;14.80;7.00;;;;;;;2.93;81.87;95717.09;5053620;28;20087;-77
2022/11/28 05:41:33;;;;;;;9.80;5.38;;;;;;;3.00;81.85;95730.16;5037246;28;20103;-77
2022/11/28 05:43:59;;;;;;;8.38;5.88;;;;;;;3.38;81.79;95785.94;5043635;28;20061;-77
2022/11/28 05:46:25;;;;;;;8.95;6.68;;;;;;;2.82;81.94;95699.47;5023762;28;20033;-77
2022/11/28 05:48:51;;;;;;;8.88;6.90;;;;;;;3.40;81.73;95791.75;5024827;28;20553;-77
2022/11/28 05:51:17;;;;;;;9.65;6.88;;;;;;;3.40;82.06;95781.28;5040459;28;20048;-76
2022/11/28 05:53:43;;;;;;;9.77;6.60;;;;;;;2.78;81.63;95684.38;5043793;28;20041;-76
2022/11/28 05:56:15;;;;;;;7.28;4.47;;;;;;;3.00;82.19;95724.91;5041593;28;20052;-76
2022/11/28 05:58:41;;;;;;;9.85;4.38;;;;;;;3.41;81.74;95779.47;5042574;28;20049;-77
2022/11/28 06:01:09;;;;;;;5.97;4.18;;;;;;;3.45;81.69;95784.06;5024175;28;20043;-78
2022/11/28 06:03:35;;;;;;;11.70;4.53;;;;;;;2.89;81.56;95699.41;5036305;28;20676;-78
2022/11/28 06:06:01;;;;;;;6.75;4.85;;;;;;;3.41;81.16;95790.75;5040583;28;20150;-77
2022/11/28 06:08:26;;;;;;;9.70;5.13;;;;;;;3.11;81.27;95732.09;5024809;28;20056;-79
2022/11/28 06:10:59;;;;;;;9.43;5.35;;;;;;;3.29;81.14;95757.56;5040045;28;20047;-77
2022/11/28 06:13:25;;;;;;;9.13;4.65;;;;;;;2.93;81.18;95692.72;4998350;28;20052;-78
2022/11/28 06:15:50;;;;;;;11.82;5.20;;;;;;;3.21;80.80;95739.47;5015350;28;20041;-78
2022/11/28 06:18:16;;;;;;;7.05;4.72;;;;;;;3.52;80.97;95778.75;5025695;28;20049;-77
2022/11/28 06:20:42;;;;;;;8.73;4.90;;;;;;;2.80;81.08;95690.22;5035957;28;20067;-77
2022/11/28 06:23:07;;;;;;;12.60;5.80;;;;;;;2.99;81.02;95694.47;5011702;28;20189;-79
2022/11/28 06:25:33;;;;;;;10.13;5.78;;;;;;;2.90;81.27;95693.16;5018889;28;20040;-79
2022/11/28 06:27:58;;;;;;;8.50;5.68;;;;;;;3.00;81.37;95696.91;5016120;28;20045;-80
2022/11/28 06:30:24;;;;;;;9.35;5.70;;;;;;;2.97;81.20;95707.81;5040514;28;20048;-80
2022/11/28 06:32:52;;;;;;;10.93;5.88;;;;;;;3.34;81.14;95755.91;5019867;28;20044;-81
2022/11/28 06:35:17;;;;;;;11.02;6.05;;;;;;;3.02;80.90;95692.25;5041485;28;20474;-80
2022/11/28 06:37:44;;;;;;;15.68;6.07;;;;;;;2.78;81.25;95651.13;5028200;28;20052;-81
2022/11/28 06:40:09;;;;;;;11.10;6.60;;;;;;;3.58;81.28;95775.28;5022196;28;20488;-81
2022/11/28 06:42:36;;;;;;;12.45;6.68;;;;;;;2.33;80.99;95566.66;5044023;28;20131;-81
2022/11/28 06:45:03;;;;;;;10.18;5.82;;;;;;;3.10;80.78;95686.75;5041718;28;20383;-78
2022/11/28 06:47:28;;;;;;;14.30;8.65;;;;;;;2.71;80.85;95611.91;5036791;28;20625;-79
2022/11/28 06:49:54;;;;;;;16.10;8.23;;;;;;;2.95;80.90;95651.41;5023877;28;20047;-79
2022/11/28 06:52:20;;;;;;;16.33;7.70;;;;;;;2.66;80.60;95606.50;5040031;28;20051;-81
2022/11/28 06:54:45;;;;;;;19.27;9.82;;;;;;;3.18;80.15;95695.34;5038009;28;20051;-79
2022/11/28 06:57:11;;;;;;;20.15;11.10;;;;;;;3.49;80.71;95737.25;5037010;28;20053;-79
2022/11/28 06:59:37;;;;;;;28.58;13.88;;;;;;;2.79;80.56;95636.22;5034928;28;20047;-78
2022/11/28 07:02:02;;;;;;;26.23;14.52;;;;;;;3.06;80.38;95672.47;5015709;28;20120;-78
2022/11/28 07:04:28;;;;;;;32.65;16.17;;;;;;;3.45;80.24;95726.38;5034711;28;20049;-79
2022/11/28 07:06:53;;;;;;;41.17;19.42;;;;;;;3.43;80.00;95730.25;5032203;28;20509;-79
2022/11/28 07:09:19;;;;;;;42.50;17.73;;;;;;;3.72;80.32;95773.34;5018091;28;20074;-80
2022/11/28 07:11:44;;;;;;;30.27;17.05;;;;;;;3.24;79.86;95705.78;5034984;28;20064;-78
2022/11/28 07:14:10;;;;;;;39.33;17.70;;;;;;;3.70;79.72;95775.38;5030205;28;20059;-82
2022/11/28 07:16:36;;;;;;;38.90;18.92;;;;;;;3.08;79.63;95694.03;5018948;28;20037;-78
2022/11/28 07:19:01;;;;;;;37.50;17.38;;;;;;;3.56;80.41;95784.38;5014798;28;20041;-81
2022/11/28 07:21:27;;;;;;;45.10;17.67;;;;;;;3.12;80.82;95706.72;5037059;28;20056;-81
2022/11/28 07:23:53;;;;;;;39.40;16.08;;;;;;;2.71;80.38;95632.03;5036910;28;20040;-81
2022/11/28 07:26:20;;;;;;;33.83;17.00;;;;;;;3.34;80.35;95753.31;5037327;28;20115;-80
2022/11/28 07:28:46;;;;;;;37.53;16.30;;;;;;;2.57;80.33;95633.97;5020952;28;20395;-82
2022/11/28 07:31:20;;;;;;;34.75;16.48;;;;;;;2.99;80.42;95679.56;5037583;28;20070;-80
2022/11/28 07:33:48;;;;;;;49.65;16.00;;;;;;;2.88;80.76;95687.34;5039061;28;20123;-79
2022/11/28 07:36:32;;;;;;;55.88;17.27;;;;;;;3.49;81.21;95768.72;5038861;28;20048;-80
2022/11/28 07:39:00;;;;;;;43.40;15.20;;;;;;;3.04;80.88;95698.09;5018191;28;20495;-80
2022/11/28 07:41:26;;;;;;;41.47;16.63;;;;;;;3.35;80.76;95733.13;5018588;28;20037;-77
2022/11/28 07:43:54;;;;;;;52.20;16.38;;;;;;;3.39;80.77;95729.84;5049337;28;20090;-79
2022/11/28 07:46:20;;;;;;;66.28;17.98;;;;;;;3.70;80.24;95773.56;5014866;28;20048;-78
2022/11/28 07:48:47;;;;;;;66.50;19.13;;;;;;;3.39;80.14;95737.72;5036358;28;20040;-78
2022/11/28 07:51:19;;;;;;;57.97;18.85;;;;;;;3.23;80.28;95691.06;5034902;28;20044;-78
2022/11/28 07:53:44;;;;;;;;;;;;;;;3.86;80.02;95767.75;5045596;28;20056;-78
2022/11/28 07:56:14;;;;;;;40.03;17.23;;;;;;;3.50;80.73;95723.13;5019075;28;19999;-78
2022/11/28 07:58:42;;;;;;;41.22;17.08;;;;;;;3.14;80.56;95650.41;5035621;28;20396;-78
2022/11/28 08:01:14;;;;;;;33.35;16.45;;;;;;;3.01;80.75;95629.56;5019967;28;20048;-78
2022/11/28 08:03:40;;;;;;;39.42;16.30;;;;;;;3.98;80.95;95770.44;5022606;28;20037;-82
2022/11/28 08:06:07;;;;;;;43.67;17.50;;;;;;;3.05;80.89;95641.25;5035345;28;20127;-79
2022/11/28 08:08:32;;;;;;;31.67;15.60;;;;;;;3.17;80.43;95641.34;5035588;28;20045;-80
2022/11/28 08:11:02;;;;;;;32.50;14.02;;;;;;;3.66;80.23;95719.91;5032032;28;20083;-79
2022/11/28 08:13:28;;;;;;;28.45;13.13;;;;;;;3.93;79.99;95743.25;5012436;28;20919;-79
2022/11/28 08:15:53;;;;;;;36.90;11.20;;;;;;;3.63;80.17;95683.63;5054410;28;20057;-80
2022/11/28 08:18:19;;;;;;;14.15;8.80;;;;;;;3.20;79.53;95631.22;5055495;28;20103;-80
2022/11/28 08:20:45;;;;;;;15.45;9.32;;;;;;;3.32;79.02;95660.16;5024589;28;20061;-79
2022/11/28 08:23:10;;;;;;;26.17;10.48;;;;;;;4.08;79.85;95760.25;5023297;28;20049;-79
2022/11/28 08:25:36;;;;;;;16.92;8.90;;;;;;;4.19;79.84;95764.00;5039129;28;20056;-79
2022/11/28 08:28:01;;;;;;;15.27;9.30;;;;;;;3.63;80.20;95694.13;5037897;28;20053;-79
2022/11/28 08:30:27;;;;;;;30.67;9.68;;;;;;;3.77;79.84;95684.28;5021687;28;20087;-78
2022/11/28 08:32:52;;;;;;;45.90;12.75;;;;;;;3.68;79.63;95689.03;5020135;28;20095;-79
2022/11/28 08:35:18;;;;;;;38.90;12.50;;;;;;;4.16;79.49;95741.59;5020913;28;20363;-79
2022/11/28 08:37:43;;;;;;;34.50;12.20;;;;;;;4.00;79.64;95700.19;5038031;28;20053;-79
2022/11/28 08:40:09;;;;;;;24.80;12.88;;;;;;;3.63;79.62;95646.13;5020841;28;20041;-79
2022/11/28 08:42:35;;;;;;;18.75;11.45;;;;;;;3.71;79.75;95672.06;5041229;28;20079;-79
2022/11/28 08:45:00;;;;;;;25.85;13.13;;;;;;;4.38;79.98;95755.06;5041036;28;20053;-79
2022/11/28 08:47:25;;;;;;;23.48;13.77;;;;;;;3.56;79.70;95651.44;5019462;28;20121;-80
2022/11/28 08:49:51;;;;;;;25.80;15.38;;;;;;;4.27;80.03;95753.97;5040942;28;20048;-79
2022/11/28 08:52:16;;;;;;;26.23;14.52;;;;;;;3.47;80.16;95618.66;5019196;28;20087;-79
2022/11/28 08:54:42;;;;;;;23.58;13.43;;;;;;;4.04;79.47;95705.81;5034041;28;20045;-83
2022/11/28 08:57:08;;;;;;;18.13;10.95;;;;;;;4.26;78.82;95743.72;5007315;28;20178;-78
2022/11/28 08:59:34;;;;;;;18.65;11.60;;;;;;;3.98;79.41;95683.84;5011963;28;20495;-79
2022/11/28 09:02:00;;;;;;;22.95;12.30;;;;;;;3.70;79.02;95633.72;5034875;28;20059;-78
2022/11/28 09:04:25;;;;;;;27.25;14.30;;;;;;;3.84;79.20;95656.16;5037567;28;20790;-79
2022/11/28 09:06:51;;;;;;;21.52;11.63;;;;;;;4.07;79.61;95711.41;5036599;28;20045;-79
2022/11/28 09:09:17;;;;;;;17.98;11.20;;;;;;;3.82;80.20;95658.19;5019814;28;20044;-79
2022/11/28 09:11:42;;;;;;;21.70;12.05;;;;;;;3.82;80.50;95673.94;5036017;28;20140;-80
2022/11/28 09:14:08;;;;;;;23.80;12.38;;;;;;;4.28;81.29;95712.75;5037434;28;20036;-79
2022/11/28 09:16:33;;;;;;;26.45;12.98;;;;;;;4.43;80.91;95715.81;5023129;28;20519;-79
2022/11/28 09:18:58;;;;;;;24.92;11.88;;;;;;;4.13;81.68;95678.22;5017919;28;20047;-79
2022/11/28 09:21:25;;;;;;;21.00;11.88;;;;;;;4.49;81.40;95709.69;5037578;28;20456;-79
2022/11/28 09:23:54;;;;;;;19.88;11.95;;;;;;;4.23;81.01;95655.69;5043369;28;20104;-80
2022/11/28 09:26:21;;;;;;;20.65;12.30;;;;;;;3.92;81.04;95582.41;5037287;28;20131;-80
2022/11/28 09:28:47;;;;;;;19.65;12.40;;;;;;;4.38;80.15;95628.22;5018853;28;20048;-80
2022/11/28 09:31:15;;;;;;;26.98;14.13;;;;;;;4.94;80.22;95693.50;5040298;28;20052;-79
2022/11/28 09:33:41;;;;;;;21.15;10.75;;;;;;;4.94;80.95;95690.88;5034149;28;20857;-79
2022/11/28 09:36:12;;;;;;;19.02;10.30;;;;;;;4.01;81.18;95523.34;5021008;28;20037;-79
2022/11/28 09:38:38;;;;;;;21.73;11.52;;;;;;;5.14;81.35;95693.19;5018125;28;20125;-79
2022/11/28 09:41:26;;;;;;;17.77;10.35;;;;;;;5.14;80.40;95688.72;5030637;28;20057;-78
2022/11/28 09:43:58;;;;;;;18.17;9.48;;;;;;;4.62;80.23;95601.00;5015613;28;20061;-79
2022/11/28 09:46:28;;;;;;;16.08;9.30;;;;;;;4.60;80.33;95558.38;5035756;28;20041;-80
2022/11/28 09:48:59;;;;;;;13.20;7.90;;;;;;;5.27;81.69;95654.31;5015382;28;20434;-78
2022/11/28 09:51:54;;;;;;;12.68;8.60;;;;;;;5.49;79.42;95656.38;5013640;28;20492;-78
2022/11/28 09:54:33;;;;;;;10.88;6.65;;;;;;;5.31;78.71;95625.75;5037723;28;20041;-78
2022/11/28 09:56:59;;;;;;;9.88;6.97;;;;;;;4.79;77.94;95535.44;5036583;28;20041;-80
2022/11/28 09:59:27;;;;;;;9.20;6.50;;;;;;;5.13;78.24;95570.63;5037873;28;20044;-79
2022/11/28 10:02:29;;;;;;;8.70;5.55;;;;;;;5.61;78.02;95602.72;5020210;28;20041;-80
2022/11/28 10:05:19;;;;;;;9.35;6.28;;;;;;;5.32;78.60;95491.38;5036619;28;20120;-79
2022/11/28 10:08:09;;;;;;;11.48;6.47;;;;;;;6.40;76.28;95642.47;5012893;28;20468;-79
2022/11/28 10:11:18;;;;;;;14.95;6.03;;;;;;;5.78;75.58;95577.28;5032991;28;20037;-79
2022/11/28 10:14:01;;;;;;;7.45;5.70;;;;;;;6.37;74.18;95645.56;5038574;28;20083;-80
2022/11/28 10:16:45;;;;;;;8.40;5.72;;;;;;;6.48;73.16;95652.63;5023165;28;20152;-79
2022/11/28 10:19:34;;;;;;;12.70;5.50;;;;;;;5.67;71.89;95541.25;5052078;28;20052;-79
2022/11/28 10:22:02;;;;;;;10.30;5.80;;;;;;;6.32;72.58;95624.41;5043221;28;20110;-80
2022/11/28 10:24:43;;;;;;;11.93;5.65;;;;;;;5.90;72.92;95543.03;5021400;28;20885;-79
2022/11/28 10:27:13;;;;;;;12.88;6.70;;;;;;;5.97;72.04;95566.59;5037912;28;20040;-79
2022/11/28 10:29:47;;;;;;;11.40;7.03;;;;;;;6.55;71.74;95625.09;5018422;28;20041;-79
2022/11/28 10:32:19;;;;;;;9.60;6.40;;;;;;;6.19;71.70;95542.00;5050843;28;20049;-80
2022/11/28 10:35:00;;;;;;;14.18;7.43;;;;;;;6.26;72.35;95575.28;5016295;28;20049;-80
2022/11/28 10:37:28;;;;;;;18.42;7.90;;;;;;;6.52;72.10;95616.84;5043888;28;20175;-80
2022/11/28 10:39:54;;;;;;;13.65;8.57;;;;;;;6.29;71.01;95580.88;5039073;28;20609;-79
2022/11/28 10:42:34;;;;;;;14.10;7.43;;;;;;;6.32;70.82;95609.41;5021878;28;20048;-79
2022/11/28 10:45:02;;;;;;;14.05;7.55;;;;;;;6.37;70.74;95614.75;5039286;28;20117;-79
2022/11/28 10:47:38;;;;;;;20.90;10.60;;;;;;;5.30;71.06;95435.59;5015897;28;20142;-80
2022/11/28 10:50:25;;;;;;;26.42;13.32;;;;;;;6.07;70.89;95586.03;5041286;28;20052;-80
2022/11/28 10:53:00;;;;;;;28.85;15.50;;;;;;;6.33;70.93;95607.56;5019799;28;20037;-80
2022/11/28 10:55:25;;;;;;;23.52;9.82;;;;;;;6.31;70.38;95607.81;5017729;28;20041;-82
2022/11/28 10:58:07;;;;;;;66.75;12.00;;;;;;;6.38;70.42;95603.19;5033855;28;20448;-81
2022/11/28 11:00:34;;;;;;;68.03;13.48;;;;;;;5.59;70.50;95488.19;5018060;28;20476;-79
2022/11/28 11:03:01;;;;;;;19.80;8.30;;;;;;;5.38;71.72;95502.81;5036256;28;20040;-79
2022/11/28 11:05:29;;;;;;;31.90;7.82;;;;;;;5.29;71.77;95460.28;5015628;28;20806;-79
2022/11/28 11:08:08;;;;;;;31.15;8.32;;;;;;;6.11;71.52;95579.25;5035642;28;20036;-80
2022/11/28 11:10:48;;;;;;;15.68;7.03;;;;;;;6.29;70.91;95601.16;5016710;28;20056;-79
2022/11/28 11:13:22;;;;;;;11.23;5.35;;;;;;;5.88;70.89;95529.31;5031216;28;20116;-79
2022/11/28 11:16:06;;;;;;;11.05;5.25;;;;;;;5.58;69.55;95521.59;5028140;28;20060;-76
2022/11/28 11:18:46;;;;;;;8.88;4.57;;;;;;;5.93;70.14;95591.81;5018085;28;20048;-79
2022/11/28 11:21:25;;;;;;;7.63;4.25;;;;;;;6.05;71.30;95587.28;5041388;28;20131;-79
2022/11/28 11:24:17;;;;;;;10.02;4.57;;;;;;;6.11;70.13;95573.97;5010011;28;20043;-78
2022/11/28 11:26:46;;;;;;;6.82;3.95;;;;;;;6.05;68.85;95582.00;5011774;28;20055;-80
2022/11/28 11:29:31;;;;;;;5.07;3.25;;;;;;;6.06;68.79;95571.25;5012937;28;20055;-80
2022/11/28 11:32:02;;;;;;;5.88;3.67;;;;;;;5.95;70.09;95576.59;5004309;28;20135;-79
2022/11/28 11:34:50;;;;;;;7.95;4.78;;;;;;;5.79;71.18;95535.97;5043005;28;20041;-79
2022/11/28 11:37:36;;;;;;;12.77;4.90;;;;;;;5.43;70.53;95458.19;5012020;28;20046;-79
2022/11/28 11:40:17;;;;;;;10.32;4.25;;;;;;;5.78;69.39;95500.16;5031442;28;20071;-79
2022/11/28 11:42:52;;;;;;;7.63;4.32;;;;;;;6.21;69.12;95560.19;5012326;28;20057;-78
2022/11/28 11:45:26;;;;;;;7.85;4.82;;;;;;;6.15;69.40;95550.63;5001416;28;20082;-78
2022/11/28 11:47:52;;;;;;;8.27;4.40;;;;;;;5.53;70.01;95468.09;5012274;28;20041;-78
2022/11/28 11:50:20;;;;;;;10.60;4.78;;;;;;;5.98;70.04;95533.97;5017222;28;20423;-79